Patton, California
Current Conditions -  °F | °C
As of 3:58 AM on Wednesday 26 Nov 2014 (Local Time) from KRIV Reporting Station
Clear Clear  
Wind Chill: 41°   Ceiling: Unl
Heat Index: 41°   Visibility: 10mi
Dew Point: 16°   Wind: 2mph
Humidity: 37%   Direction: 280°W
Pressure: 30.26"   Gusts: NA
Location:  34.14°N, 117.22°W
Report Text: KRIV 261158Z AUTO 28002KT 10SM CLR 05/M09 A3026 RMK AO2 SLP244 T00481088 10077 20040 57006
Loading
Personal Weather Stations






























Interactive Weather Map New forecast layout! Learn more

10-Day Weather Forecast

Advertisements
Track Severe Weather on mobile